Time;durP1;ratioP1;P1;durP2;ratioP2;P2;SDS_P1;SDS_P2;PMS_P1;PMS_P2;Temp;Humidity;BMP_temperature;BMP_pressure;BME280_temperature;BME280_humidity;BME280_pressure;Samples;Min_cycle;Max_cycle;Signal;HPM_P1;HPM_P2
2022/11/27 00:00:27;;;;;;;6.57;3.67;;;;;;;19.73;42.24;102511.91;5029655;28;20683;-71
2022/11/27 00:02:52;;;;;;;8.13;3.50;;;;;;;19.66;42.27;102504.66;5024985;28;20041;-70
2022/11/27 00:05:17;;;;;;;6.63;3.42;;;;;;;19.73;42.28;102511.06;5024799;28;20036;-71
2022/11/27 00:07:43;;;;;;;6.50;4.03;;;;;;;19.72;42.14;102502.28;5028054;28;20072;-71
2022/11/27 00:10:09;;;;;;;7.03;3.78;;;;;;;19.74;42.10;102508.28;5027670;28;20083;-71
2022/11/27 00:12:34;;;;;;;8.88;3.50;;;;;;;19.67;42.25;102501.88;5029202;28;20068;-71
2022/11/27 00:15:01;;;;;;;7.05;3.50;;;;;;;19.66;42.46;102488.81;5026194;28;20112;-71
2022/11/27 00:17:26;;;;;;;8.02;3.97;;;;;;;19.69;42.07;102496.47;5025907;28;20614;-71
2022/11/27 00:19:52;;;;;;;6.85;3.35;;;;;;;19.70;42.35;102484.91;5026021;28;20041;-71
2022/11/27 00:22:17;;;;;;;6.82;3.13;;;;;;;19.67;42.23;102493.13;5025570;28;20083;-70
2022/11/27 00:24:43;;;;;;;7.85;3.38;;;;;;;19.70;42.21;102485.75;5026666;28;20039;-71
2022/11/27 00:27:10;;;;;;;5.53;3.30;;;;;;;19.75;42.02;102490.59;5026412;28;20041;-71
2022/11/27 00:29:37;;;;;;;6.28;3.33;;;;;;;19.67;42.31;102480.75;5023341;28;20033;-71
2022/11/27 00:32:05;;;;;;;7.35;3.47;;;;;;;19.67;42.30;102487.84;5028550;28;20097;-71
2022/11/27 00:34:31;;;;;;;8.15;3.60;;;;;;;19.64;42.32;102482.84;5026358;28;20084;-71
2022/11/27 00:36:56;;;;;;;7.15;3.38;;;;;;;19.65;42.31;102472.13;5025588;28;20505;-71
2022/11/27 00:39:22;;;;;;;5.75;3.10;;;;;;;19.65;41.99;102474.75;5028218;28;20037;-72
2022/11/27 00:41:47;;;;;;;8.38;3.42;;;;;;;19.69;42.16;102483.25;5028230;28;20503;-71
2022/11/27 00:44:13;;;;;;;6.90;3.20;;;;;;;19.69;42.27;102489.38;5025065;28;20065;-71
2022/11/27 00:46:40;;;;;;;8.07;3.67;;;;;;;19.73;42.06;102489.91;5028996;28;20243;-71
2022/11/27 00:49:07;;;;;;;8.82;3.75;;;;;;;19.75;42.11;102499.41;5024801;28;20049;-71
2022/11/27 00:51:32;;;;;;;7.70;3.60;;;;;;;19.65;42.18;102498.56;5023396;28;20033;-71
2022/11/27 00:53:58;;;;;;;4.68;3.30;;;;;;;19.64;42.11;102488.13;5027660;28;20504;-71
2022/11/27 00:56:26;;;;;;;6.15;3.47;;;;;;;19.74;42.05;102487.13;5023824;28;20076;-71
2022/11/27 00:58:52;;;;;;;7.65;3.40;;;;;;;19.70;42.11;102496.31;5022137;28;20021;-71
2022/11/27 01:01:21;;;;;;;6.68;3.38;;;;;;;19.66;42.26;102494.94;5026090;28;20135;-71
2022/11/27 01:03:47;;;;;;;5.40;3.47;;;;;;;19.69;42.36;102505.22;5025273;28;20514;-71
2022/11/27 01:06:13;;;;;;;7.28;3.72;;;;;;;19.73;42.04;102495.19;5024749;28;20160;-71
2022/11/27 01:08:40;;;;;;;6.57;3.95;;;;;;;19.69;42.14;102483.25;5027251;28;20495;-71
2022/11/27 01:11:05;;;;;;;5.22;3.42;;;;;;;19.66;42.06;102465.03;5023588;28;20033;-71
2022/11/27 01:13:33;;;;;;;7.13;3.30;;;;;;;19.65;42.39;102473.94;5028751;28;20048;-71
2022/11/27 01:16:01;;;;;;;5.60;3.17;;;;;;;19.67;42.24;102482.56;5031445;28;20079;-71
2022/11/27 01:18:27;;;;;;;6.65;3.63;;;;;;;19.65;42.04;102469.47;5022841;28;20552;-72
2022/11/27 01:20:53;;;;;;;4.63;3.20;;;;;;;19.64;42.25;102474.91;5024831;28;20118;-71
2022/11/27 01:23:20;;;;;;;5.13;3.30;;;;;;;19.68;42.16;102471.00;5027866;28;20033;-71
2022/11/27 01:25:46;;;;;;;5.45;3.00;;;;;;;19.61;42.10;102458.34;5027275;28;20080;-70
2022/11/27 01:28:11;;;;;;;6.20;3.00;;;;;;;19.59;42.29;102452.38;5025490;28;20033;-71
2022/11/27 01:30:37;;;;;;;5.93;3.15;;;;;;;19.66;42.17;102457.09;5024716;28;20041;-71
2022/11/27 01:33:03;;;;;;;5.20;2.80;;;;;;;19.66;41.98;102452.66;5027107;28;22140;-70
2022/11/27 01:35:28;;;;;;;5.47;3.22;;;;;;;19.67;42.14;102466.69;5028543;28;20049;-71
2022/11/27 01:37:54;;;;;;;5.30;2.95;;;;;;;19.60;42.27;102461.97;5029985;28;20060;-71
2022/11/27 01:40:20;;;;;;;5.35;3.05;;;;;;;19.59;42.28;102459.47;5033021;28;20029;-71
2022/11/27 01:42:46;;;;;;;5.47;2.95;;;;;;;19.59;42.22;102448.91;5024278;28;21683;-71
2022/11/27 01:45:14;;;;;;;4.75;3.20;;;;;;;19.61;42.00;102439.03;5033240;28;20060;-71
2022/11/27 01:47:48;;;;;;;5.97;2.95;;;;;;;19.68;41.97;102448.06;5031995;28;20049;-71
2022/11/27 01:50:36;;;;;;;6.38;3.28;;;;;;;19.72;41.64;102444.16;5032970;28;20517;-69
2022/11/27 01:53:15;;;;;;;6.20;3.08;;;;;;;19.66;42.08;102444.72;5022353;28;20034;-69
2022/11/27 01:55:45;;;;;;;4.40;3.00;;;;;;;19.54;42.28;102428.16;5030129;28;20075;-69
2022/11/27 01:58:17;;;;;;;5.55;3.10;;;;;;;19.65;42.10;102431.66;5031103;28;20471;-69
2022/11/27 02:00:42;;;;;;;5.20;3.13;;;;;;;19.64;41.96;102435.25;5025213;28;20049;-69
2022/11/27 02:03:08;;;;;;;5.63;3.25;;;;;;;19.61;42.20;102433.75;5030942;28;20037;-69
2022/11/27 02:05:33;;;;;;;7.13;3.28;;;;;;;19.71;41.85;102429.25;5026649;28;20052;-69
2022/11/27 02:08:06;;;;;;;6.68;3.05;;;;;;;19.67;42.01;102427.88;5032553;28;20038;-70
2022/11/27 02:10:45;;;;;;;6.25;3.20;;;;;;;19.66;41.97;102434.16;5027681;28;20498;-69
2022/11/27 02:13:16;;;;;;;5.38;3.20;;;;;;;19.65;42.13;102418.44;5030753;28;20029;-69
2022/11/27 02:15:46;;;;;;;5.85;2.92;;;;;;;19.65;42.01;102423.72;5029393;28;20068;-70
2022/11/27 02:18:15;;;;;;;7.40;3.03;;;;;;;19.66;42.01;102404.25;5026614;28;20090;-69
2022/11/27 02:20:50;;;;;;;6.10;3.00;;;;;;;19.63;42.05;102407.16;5029151;28;20056;-69
2022/11/27 02:23:43;;;;;;;6.22;3.38;;;;;;;19.69;41.96;102401.31;5028784;28;20033;-69
2022/11/27 02:26:46;;;;;;;5.05;2.80;;;;;;;19.66;42.01;102394.50;5026235;28;20037;-69
2022/11/27 02:29:13;;;;;;;5.90;3.35;;;;;;;19.67;41.94;102379.47;5025047;28;20049;-69
2022/11/27 02:32:07;;;;;;;4.97;2.85;;;;;;;19.66;41.90;102383.94;5028947;28;20549;-69
2022/11/27 02:34:44;;;;;;;5.43;3.10;;;;;;;19.61;41.96;102384.38;5041693;28;20048;-69
2022/11/27 02:37:22;;;;;;;3.92;2.80;;;;;;;19.66;41.95;102380.47;5026790;28;20041;-71
2022/11/27 02:40:19;;;;;;;6.43;3.42;;;;;;;19.60;42.08;102376.56;5027216;28;20037;-69
2022/11/27 02:43:08;;;;;;;4.93;3.00;;;;;;;19.61;42.05;102372.97;5023939;28;20144;-69
2022/11/27 02:45:39;;;;;;;4.50;3.05;;;;;;;19.55;42.16;102376.97;5026651;28;20065;-69
2022/11/27 02:48:07;;;;;;;6.80;2.83;;;;;;;19.61;42.21;102370.31;5026679;28;20446;-69
2022/11/27 02:50:34;;;;;;;7.10;3.13;;;;;;;19.62;41.93;102374.63;5025832;28;20924;-69
2022/11/27 02:53:06;;;;;;;5.55;2.90;;;;;;;19.63;41.86;102357.78;5026176;28;20049;-69
2022/11/27 02:55:35;;;;;;;7.72;2.97;;;;;;;19.60;42.03;102356.28;5029003;28;20094;-69
2022/11/27 02:58:04;;;;;;;5.50;2.80;;;;;;;19.65;41.93;102358.47;5024399;28;20453;-69
2022/11/27 03:00:31;;;;;;;4.07;2.83;;;;;;;19.68;41.74;102363.47;5027167;28;20140;-69
2022/11/27 03:03:02;;;;;;;5.25;3.00;;;;;;;19.59;42.04;102353.78;5026833;28;20033;-69
2022/11/27 03:05:34;;;;;;;6.45;2.88;;;;;;;19.51;42.10;102346.50;5028778;28;20068;-69
2022/11/27 03:08:06;;;;;;;4.40;2.80;;;;;;;19.47;42.11;102342.47;5026264;28;21254;-69
2022/11/27 03:10:45;;;;;;;5.25;3.15;;;;;;;19.61;41.94;102346.53;5030650;28;20029;-69
2022/11/27 03:13:10;;;;;;;5.47;2.95;;;;;;;19.59;41.96;102330.81;5021611;28;20041;-69
2022/11/27 03:15:48;;;;;;;3.95;2.60;;;;;;;19.60;41.97;102336.94;5029535;28;20037;-70
2022/11/27 03:18:30;;;;;;;5.20;2.60;;;;;;;19.66;41.80;102340.81;5027081;28;20037;-70
2022/11/27 03:21:18;;;;;;;5.03;3.05;;;;;;;19.60;41.94;102337.78;5035444;28;20093;-69
2022/11/27 03:23:44;;;;;;;5.43;2.90;;;;;;;19.61;41.93;102342.09;5029097;28;20041;-69
2022/11/27 03:26:09;;;;;;;4.25;3.03;;;;;;;19.61;41.87;102342.09;5027897;28;20044;-69
2022/11/27 03:28:35;;;;;;;5.07;3.13;;;;;;;19.53;41.87;102331.34;5026915;28;20041;-69
2022/11/27 03:31:01;;;;;;;6.85;2.92;;;;;;;19.49;42.06;102343.16;5027429;28;20124;-69
2022/11/27 03:33:26;;;;;;;7.28;2.85;;;;;;;19.50;42.03;102330.78;5032250;28;20041;-68
2022/11/27 03:35:52;;;;;;;5.70;3.00;;;;;;;19.55;41.93;102329.41;5027558;28;20033;-68
2022/11/27 03:38:17;;;;;;;4.18;2.53;;;;;;;19.49;42.21;102332.59;5029874;28;20471;-69
2022/11/27 03:41:02;;;;;;;6.68;2.78;;;;;;;19.54;41.93;102317.19;5024639;28;20132;-69
2022/11/27 03:43:33;;;;;;;6.25;2.75;;;;;;;19.64;41.86;102327.75;5026341;28;20712;-68
2022/11/27 03:46:25;;;;;;;5.50;2.65;;;;;;;19.62;41.80;102324.41;5025712;28;20092;-69
2022/11/27 03:49:01;;;;;;;6.15;2.83;;;;;;;19.57;41.91;102319.56;5031422;28;20045;-69
2022/11/27 03:51:56;;;;;;;6.88;3.13;;;;;;;19.57;41.91;102327.50;5028009;28;20115;-69
2022/11/27 03:54:21;;;;;;;5.32;3.38;;;;;;;19.55;41.90;102316.19;5021757;28;20068;-69
2022/11/27 03:57:07;;;;;;;5.32;3.15;;;;;;;19.56;41.93;102315.22;5025948;28;20491;-69
2022/11/27 03:59:38;;;;;;;5.90;2.95;;;;;;;19.47;41.88;102302.84;5023169;28;20040;-69
2022/11/27 04:02:03;;;;;;;5.05;2.63;;;;;;;19.57;41.75;102293.13;5025142;28;20782;-69
2022/11/27 04:04:29;;;;;;;4.40;2.63;;;;;;;19.51;41.78;102285.72;5025134;28;20036;-69
2022/11/27 04:06:54;;;;;;;4.85;2.83;;;;;;;19.45;41.86;102270.47;5025190;28;20033;-69
2022/11/27 04:09:20;;;;;;;5.82;2.85;;;;;;;19.49;41.97;102278.94;5027433;28;20037;-69
2022/11/27 04:11:45;;;;;;;5.22;2.78;;;;;;;19.51;42.00;102275.16;5026520;28;20041;-70
2022/11/27 04:14:11;;;;;;;3.65;2.28;;;;;;;19.51;42.00;102282.25;5025279;28;20178;-69
2022/11/27 04:16:36;;;;;;;4.57;2.70;;;;;;;19.40;41.76;102259.50;5026157;28;20038;-68
2022/11/27 04:19:02;;;;;;;6.65;3.65;;;;;;;19.49;41.92;102279.75;5024153;28;20127;-69
2022/11/27 04:21:27;;;;;;;5.60;2.58;;;;;;;19.58;41.75;102280.75;5025559;28;20077;-69
2022/11/27 04:23:53;;;;;;;4.55;2.83;;;;;;;19.54;41.84;102277.53;5024070;28;20463;-69
2022/11/27 04:26:19;;;;;;;5.22;2.97;;;;;;;19.48;41.95;102270.16;5024632;28;20056;-69
2022/11/27 04:28:44;;;;;;;4.53;2.72;;;;;;;19.54;41.69;102268.78;5025872;28;20043;-69
2022/11/27 04:31:10;;;;;;;6.40;2.63;;;;;;;19.51;41.84;102272.53;5027790;28;20894;-69
2022/11/27 04:33:35;;;;;;;6.20;2.80;;;;;;;19.48;41.81;102277.25;5026728;28;20041;-69
2022/11/27 04:36:01;;;;;;;3.95;2.38;;;;;;;19.46;41.85;102258.91;5020783;28;20037;-69
2022/11/27 04:38:26;;;;;;;4.60;2.70;;;;;;;19.41;41.91;102268.25;5024940;28;20036;-69
2022/11/27 04:40:52;;;;;;;5.28;3.13;;;;;;;19.47;41.91;102259.75;5024111;28;20468;-69
2022/11/27 04:43:18;;;;;;;5.97;2.80;;;;;;;19.50;41.92;102277.94;5024374;28;20048;-69
2022/11/27 04:45:43;;;;;;;5.88;3.10;;;;;;;19.48;41.90;102274.63;5025176;28;20455;-69
2022/11/27 04:48:09;;;;;;;4.65;2.70;;;;;;;19.39;41.97;102270.19;5024128;28;20080;-69
2022/11/27 04:50:34;;;;;;;4.90;3.03;;;;;;;19.49;42.01;102281.56;5022751;28;20041;-69
2022/11/27 04:53:00;;;;;;;4.35;2.80;;;;;;;19.47;41.76;102268.50;5026807;28;20033;-69
2022/11/27 04:55:25;;;;;;;4.45;2.70;;;;;;;19.50;42.01;102289.34;5025221;28;20037;-69
2022/11/27 04:57:51;;;;;;;8.82;2.95;;;;;;;19.49;42.02;102281.56;5023649;28;20434;-69
2022/11/27 05:00:17;;;;;;;5.95;3.25;;;;;;;19.45;41.72;102278.38;5026623;28;20087;-69
2022/11/27 05:02:42;;;;;;;5.70;2.92;;;;;;;19.50;41.85;102283.22;5019747;28;20115;-72
2022/11/27 05:05:08;;;;;;;4.45;2.83;;;;;;;19.51;41.91;102282.25;5028891;28;20523;-69
2022/11/27 05:07:34;;;;;;;4.97;2.45;;;;;;;19.49;41.64;102279.75;5027517;28;20045;-69
2022/11/27 05:09:59;;;;;;;3.65;2.40;;;;;;;19.50;41.82;102289.34;5029045;28;20123;-69
2022/11/27 05:12:25;;;;;;;6.10;2.90;;;;;;;19.51;41.77;102283.09;5034005;28;20037;-69
2022/11/27 05:14:50;;;;;;;5.90;2.58;;;;;;;19.51;41.71;102279.63;5027952;28;20106;-69
2022/11/27 05:17:16;;;;;;;3.47;2.55;;;;;;;19.45;41.93;102274.91;5031305;28;20037;-69
2022/11/27 05:19:41;;;;;;;3.63;2.45;;;;;;;19.46;41.85;102274.75;5029688;28;20056;-69
2022/11/27 05:22:07;;;;;;;4.68;2.60;;;;;;;19.50;41.74;102265.56;5033227;28;20037;-70
2022/11/27 05:24:32;;;;;;;5.30;2.70;;;;;;;19.52;41.73;102249.56;5031020;28;20052;-69
2022/11/27 05:26:58;;;;;;;4.07;2.75;;;;;;;19.45;41.91;102249.31;5028659;28;20048;-69
2022/11/27 05:29:24;;;;;;;4.47;2.58;;;;;;;19.49;41.71;102248.06;5030477;28;20046;-69
2022/11/27 05:31:50;;;;;;;4.20;2.45;;;;;;;19.48;41.80;102246.38;5029803;28;20061;-69
2022/11/27 05:34:15;;;;;;;3.28;2.40;;;;;;;19.45;41.93;102235.28;5036162;28;20068;-69
2022/11/27 05:36:42;;;;;;;4.82;2.90;;;;;;;19.48;41.74;102235.81;5039192;28;20041;-71
2022/11/27 05:39:08;;;;;;;7.10;2.97;;;;;;;19.48;41.95;102235.81;5040147;28;20045;-69
2022/11/27 05:41:35;;;;;;;3.85;2.30;;;;;;;19.53;41.62;102240.66;5038526;28;20037;-69
2022/11/27 05:44:01;;;;;;;4.22;2.20;;;;;;;19.47;41.81;102233.31;5039265;28;20045;-70
2022/11/27 05:46:27;;;;;;;4.55;2.50;;;;;;;19.45;41.89;102222.06;5032698;28;20558;-69
2022/11/27 05:48:53;;;;;;;5.47;2.88;;;;;;;19.35;41.99;102222.09;5040919;28;20115;-69
2022/11/27 05:51:18;;;;;;;5.75;2.65;;;;;;;19.39;42.01;102220.84;5029449;28;20037;-69
2022/11/27 05:53:44;;;;;;;3.10;2.47;;;;;;;19.54;41.62;102227.34;5024840;28;20045;-69
2022/11/27 05:56:13;;;;;;;6.90;2.70;;;;;;;19.52;41.78;102223.97;5029799;28;20053;-69
2022/11/27 05:58:40;;;;;;;2.90;2.30;;;;;;;19.54;41.78;102221.22;5025657;28;20061;-69
2022/11/27 06:01:07;;;;;;;5.53;2.70;;;;;;;19.59;41.79;102229.56;5030892;28;20605;-69
2022/11/27 06:03:33;;;;;;;5.45;2.55;;;;;;;19.51;41.88;102222.31;5027054;28;20076;-68
2022/11/27 06:06:05;;;;;;;3.20;2.38;;;;;;;19.55;41.72;102212.31;5030831;28;22158;-69
2022/11/27 06:08:30;;;;;;;4.18;2.20;;;;;;;19.61;41.75;102220.53;5030112;28;20609;-69
2022/11/27 06:10:55;;;;;;;5.40;2.55;;;;;;;19.55;41.44;102218.44;5028285;28;20051;-69
2022/11/27 06:13:21;;;;;;;5.70;2.65;;;;;;;19.54;41.83;102205.38;5027145;28;20403;-69
2022/11/27 06:15:49;;;;;;;3.67;2.42;;;;;;;19.57;41.93;102210.41;5031101;28;20448;-69
2022/11/27 06:18:14;;;;;;;4.35;2.30;;;;;;;19.59;41.95;102209.28;5026715;28;20060;-69
2022/11/27 06:20:40;;;;;;;3.20;2.40;;;;;;;19.69;41.66;102214.50;5026627;28;20041;-69
2022/11/27 06:23:05;;;;;;;3.80;2.40;;;;;;;19.67;41.79;102215.63;5032278;28;20037;-69
2022/11/27 06:25:31;;;;;;;4.57;2.22;;;;;;;19.60;41.91;102208.28;5030380;28;20045;-69
2022/11/27 06:27:56;;;;;;;3.50;2.28;;;;;;;19.57;41.93;102219.16;5026662;28;20040;-69
2022/11/27 06:30:22;;;;;;;3.78;2.50;;;;;;;19.61;41.80;102212.59;5030025;28;20530;-69
2022/11/27 06:32:47;;;;;;;4.35;2.15;;;;;;;19.63;41.79;102207.16;5029742;28;20041;-69
2022/11/27 06:35:13;;;;;;;3.72;2.40;;;;;;;19.60;41.95;102212.75;5024451;28;21216;-70
2022/11/27 06:37:38;;;;;;;3.60;2.33;;;;;;;19.63;41.86;102207.16;5027832;28;20037;-70
2022/11/27 06:40:05;;;;;;;4.78;2.80;;;;;;;19.65;41.80;102212.31;5030425;28;20560;-69
2022/11/27 06:42:30;;;;;;;3.22;2.25;;;;;;;19.66;41.90;102204.22;5027928;28;20040;-69
2022/11/27 06:44:56;;;;;;;3.88;2.42;;;;;;;19.66;41.82;102203.41;5028079;28;20119;-69
2022/11/27 06:47:22;;;;;;;4.90;2.47;;;;;;;19.68;41.82;102201.44;5027907;28;20044;-69
2022/11/27 06:49:48;;;;;;;2.78;2.20;;;;;;;19.67;41.80;102194.50;5027749;28;20688;-69
2022/11/27 06:52:13;;;;;;;3.85;2.30;;;;;;;19.63;41.94;102190.47;5024958;28;20044;-69
2022/11/27 06:54:39;;;;;;;3.45;2.47;;;;;;;19.64;41.86;102190.34;5029222;28;20522;-69
2022/11/27 06:57:04;;;;;;;3.63;2.33;;;;;;;19.60;42.07;102184.50;5026897;28;20072;-69
2022/11/27 06:59:30;;;;;;;4.28;2.38;;;;;;;19.66;41.91;102193.66;5026966;28;20037;-69
2022/11/27 07:01:55;;;;;;;3.40;2.25;;;;;;;19.69;41.91;102196.00;5023970;28;20041;-69
2022/11/27 07:04:21;;;;;;;5.05;2.20;;;;;;;19.64;41.86;102190.34;5026758;28;20166;-69
2022/11/27 07:06:46;;;;;;;3.50;2.40;;;;;;;19.62;41.90;102184.34;5025686;28;20796;-69
2022/11/27 07:09:12;;;;;;;2.75;2.15;;;;;;;19.63;41.98;102179.91;5027038;28;20037;-69
2022/11/27 07:11:38;;;;;;;2.50;1.85;;;;;;;19.68;41.85;102183.78;5027267;28;20041;-69
2022/11/27 07:14:05;;;;;;;2.90;2.00;;;;;;;19.65;41.92;102188.53;5024794;28;20045;-69
2022/11/27 07:16:34;;;;;;;3.28;2.10;;;;;;;19.66;42.10;102190.19;5032579;28;20052;-69
2022/11/27 07:19:05;;;;;;;3.63;2.20;;;;;;;19.70;41.96;102191.56;5029295;28;20043;-69
2022/11/27 07:21:32;;;;;;;3.00;2.20;;;;;;;19.68;41.89;102196.97;5026065;28;20474;-69
2022/11/27 07:23:57;;;;;;;2.65;2.03;;;;;;;19.67;41.95;102194.50;5025810;28;20548;-69
2022/11/27 07:26:25;;;;;;;2.40;1.80;;;;;;;19.67;41.95;102202.41;5027378;28;20037;-69
2022/11/27 07:28:51;;;;;;;3.83;2.10;;;;;;;19.66;41.98;102191.00;5028024;28;20035;-69
2022/11/27 07:31:28;;;;;;;3.28;2.00;;;;;;;19.70;41.92;102187.09;5024212;28;20514;-69
2022/11/27 07:33:54;;;;;;;3.17;2.05;;;;;;;19.61;41.95;102177.41;5026489;28;20538;-69
2022/11/27 07:36:22;;;;;;;4.38;2.20;;;;;;;19.70;41.90;102188.91;5025725;28;20124;-70
2022/11/27 07:38:48;;;;;;;3.63;2.25;;;;;;;19.67;41.98;102176.81;5025397;28;20146;-69
2022/11/27 07:41:14;;;;;;;3.45;2.35;;;;;;;19.71;41.84;102174.72;5023129;28;20037;-69
2022/11/27 07:43:41;;;;;;;3.72;2.10;;;;;;;19.67;41.93;102168.06;5029214;28;20037;-70
2022/11/27 07:46:13;;;;;;;2.35;1.77;;;;;;;19.73;41.80;102164.81;5027326;28;20359;-70
2022/11/27 07:48:39;;;;;;;2.88;1.75;;;;;;;19.74;41.73;102153.28;5025786;28;20729;-69
2022/11/27 07:51:09;;;;;;;2.58;2.38;;;;;;;19.74;41.54;102134.78;5025696;28;20041;-70
2022/11/27 07:53:36;;;;;;;3.70;2.60;;;;;;;19.58;42.02;102138.91;5027398;28;20096;-69
2022/11/27 07:56:03;;;;;;;4.38;2.45;;;;;;;19.70;41.85;102142.16;5030267;28;20045;-69
2022/11/27 07:58:28;;;;;;;3.22;1.90;;;;;;;19.70;42.04;102134.25;5027688;28;20071;-70
2022/11/27 08:00:55;;;;;;;4.53;2.00;;;;;;;19.72;41.92;102139.38;5030522;28;20033;-70
2022/11/27 08:03:21;;;;;;;3.00;1.90;;;;;;;19.71;41.95;102143.00;5026351;28;20036;-70
2022/11/27 08:05:46;;;;;;;2.90;2.03;;;;;;;19.69;41.86;102139.66;5024862;28;20072;-69
2022/11/27 08:08:12;;;;;;;3.38;1.90;;;;;;;19.70;41.74;102131.59;5028805;28;20768;-69
2022/11/27 08:10:38;;;;;;;3.85;1.90;;;;;;;19.65;42.03;102122.44;5021546;28;20032;-68
2022/11/27 08:13:04;;;;;;;4.00;2.38;;;;;;;19.71;41.88;102117.41;5023686;28;20064;-70
2022/11/27 08:15:30;;;;;;;3.17;2.08;;;;;;;19.72;41.78;102121.69;5023729;28;20051;-69
2022/11/27 08:17:56;;;;;;;3.53;2.10;;;;;;;19.74;41.85;102121.56;5023168;28;20041;-70
2022/11/27 08:20:21;;;;;;;3.15;2.10;;;;;;;19.72;41.96;102123.50;5028943;28;20103;-70
2022/11/27 08:22:47;;;;;;;4.15;2.33;;;;;;;19.71;41.91;102133.25;5025684;28;20118;-70
2022/11/27 08:25:13;;;;;;;2.45;2.13;;;;;;;19.78;41.75;102129.06;5025513;28;20596;-69
2022/11/27 08:27:38;;;;;;;3.65;2.00;;;;;;;19.68;41.94;102136.19;5028161;28;20056;-69
2022/11/27 08:30:05;;;;;;;3.17;2.05;;;;;;;19.71;41.91;102133.25;5027119;28;20037;-69
2022/11/27 08:32:31;;;;;;;2.67;1.88;;;;;;;19.75;41.95;102128.50;5026484;28;20045;-70
2022/11/27 08:34:57;;;;;;;2.88;2.13;;;;;;;19.70;41.95;102120.19;5026032;28;20045;-70
2022/11/27 08:37:22;;;;;;;3.60;1.88;;;;;;;19.76;41.82;102130.19;5026175;28;20033;-70
2022/11/27 08:39:48;;;;;;;4.80;2.08;;;;;;;19.61;41.90;102122.75;5030355;28;20029;-70
2022/11/27 08:42:13;;;;;;;2.58;1.90;;;;;;;19.73;42.06;102138.41;5035724;28;20049;-70
2022/11/27 08:44:39;;;;;;;4.05;2.70;;;;;;;19.71;41.83;102127.13;5034118;28;20052;-70
2022/11/27 08:47:04;;;;;;;2.55;2.08;;;;;;;19.70;41.87;102126.31;5032788;28;20047;-70
2022/11/27 08:49:30;;;;;;;2.55;1.70;;;;;;;19.66;42.03;102122.31;5034461;28;20056;-70
2022/11/27 08:51:55;;;;;;;2.38;1.80;;;;;;;19.61;42.13;102130.69;5036003;28;20037;-70
2022/11/27 08:54:21;;;;;;;2.53;1.80;;;;;;;19.71;41.88;102127.97;5035208;28;20041;-70
2022/11/27 08:56:46;;;;;;;5.00;2.65;;;;;;;19.71;41.94;102138.53;5040655;28;20522;-70
2022/11/27 08:59:12;;;;;;;3.75;2.30;;;;;;;19.66;41.93;102134.69;5037883;28;20848;-70
2022/11/27 09:01:37;;;;;;;3.38;2.40;;;;;;;19.70;42.00;102130.75;5035970;28;20041;-70
2022/11/27 09:04:03;;;;;;;3.47;2.38;;;;;;;19.65;41.94;102120.66;5035330;28;20560;-70
2022/11/27 09:06:30;;;;;;;3.40;2.25;;;;;;;19.71;41.91;102120.03;5037046;28;20052;-70
2022/11/27 09:08:58;;;;;;;2.33;1.92;;;;;;;19.66;41.96;102121.47;5036435;28;20041;-70
2022/11/27 09:11:24;;;;;;;2.42;1.85;;;;;;;19.67;41.99;102128.41;5044459;28;20037;-70
2022/11/27 09:13:49;;;;;;;4.05;1.88;;;;;;;19.75;41.90;102121.44;5037188;28;20143;-70
2022/11/27 09:16:17;;;;;;;2.95;1.88;;;;;;;19.66;41.94;102121.47;5032492;28;20037;-70
2022/11/27 09:18:45;;;;;;;4.15;2.40;;;;;;;19.71;41.83;102122.69;5037131;28;20748;-70
2022/11/27 09:21:12;;;;;;;3.40;2.30;;;;;;;19.71;41.88;102121.84;5036416;28;20483;-69
2022/11/27 09:23:38;;;;;;;4.72;2.40;;;;;;;19.71;41.92;102127.97;5038608;28;20427;-69
2022/11/27 09:26:07;;;;;;;4.85;2.38;;;;;;;19.70;41.82;102121.03;5040335;28;20294;-69
2022/11/27 09:28:34;;;;;;;3.45;2.20;;;;;;;19.66;41.88;102130.22;5039097;28;20748;-69
2022/11/27 09:31:01;;;;;;;3.60;2.20;;;;;;;19.68;41.88;102136.19;5035435;28;20061;-69
2022/11/27 09:33:30;;;;;;;3.60;2.22;;;;;;;19.67;42.05;102128.41;5036362;28;20048;-69
2022/11/27 09:35:56;;;;;;;2.92;2.17;;;;;;;19.67;41.97;102120.50;5032134;28;20037;-69
2022/11/27 09:38:22;;;;;;;3.08;1.90;;;;;;;19.68;41.83;102124.81;5040166;28;20499;-70
2022/11/27 09:41:01;;;;;;;3.17;1.98;;;;;;;19.77;41.69;102122.13;5041203;28;20415;-70
2022/11/27 09:43:33;;;;;;;3.78;2.17;;;;;;;19.69;41.83;102124.66;5030413;28;20127;-69
2022/11/27 09:46:08;;;;;;;10.55;2.65;;;;;;;19.69;41.81;102126.47;5031730;28;20056;-70
2022/11/27 09:48:38;;;;;;;3.60;2.10;;;;;;;19.66;41.91;102126.75;5033974;28;20064;-70
2022/11/27 09:51:11;;;;;;;3.97;2.10;;;;;;;19.65;41.89;102125.94;5032805;28;21051;-70
2022/11/27 09:53:49;;;;;;;3.25;2.33;;;;;;;19.58;41.96;102127.50;5030612;28;20040;-70
2022/11/27 09:56:17;;;;;;;3.08;2.20;;;;;;;19.68;41.79;102130.91;5036062;28;20079;-70
2022/11/27 09:58:48;;;;;;;4.18;2.30;;;;;;;19.66;41.85;102124.94;5026904;28;20079;-70
2022/11/27 10:01:16;;;;;;;4.60;2.45;;;;;;;19.59;41.76;102124.72;5029502;28;21049;-70
2022/11/27 10:03:43;;;;;;;6.88;2.40;;;;;;;19.59;41.89;102126.53;5028010;28;20049;-70
2022/11/27 10:06:57;;;;;;;4.35;2.22;;;;;;;19.51;42.00;102126.38;5032774;28;20584;-70
2022/11/27 10:09:56;;;;;;;3.42;2.00;;;;;;;19.57;41.92;102124.03;5030646;28;20036;-69
2022/11/27 10:12:55;;;;;;;4.80;2.50;;;;;;;19.58;41.89;102127.50;5026185;28;20037;-69
2022/11/27 10:15:47;;;;;;;7.97;2.60;;;;;;;19.62;41.74;102126.22;5026197;28;20044;-70
2022/11/27 10:18:31;;;;;;;6.07;2.42;;;;;;;19.60;41.91;102123.72;5031934;28;20131;-69
2022/11/27 10:21:14;;;;;;;2.67;2.30;;;;;;;19.60;41.95;102123.72;5029328;28;20121;-70
2022/11/27 10:23:56;;;;;;;3.78;2.50;;;;;;;19.55;41.82;102114.56;5026936;28;20048;-70
2022/11/27 10:26:44;;;;;;;3.00;2.30;;;;;;;19.54;41.99;102110.25;5029696;28;20098;-70
2022/11/27 10:29:32;;;;;;;3.22;1.98;;;;;;;19.68;41.98;102106.31;4977477;28;20114;-64
2022/11/27 10:32:18;;;;;;;4.10;2.60;;;;;;;19.84;41.74;102094.09;5023295;28;20033;-70
2022/11/27 10:34:48;;;;;;;3.20;2.42;;;;;;;20.01;41.77;102089.81;5025052;28;20617;-67
2022/11/27 10:37:26;;;;;;;3.88;2.53;;;;;;;20.09;41.79;102094.34;5029494;28;20059;-71
2022/11/27 10:39:55;;;;;;;4.05;2.55;;;;;;;20.16;41.52;102092.75;5029612;28;20045;-68
2022/11/27 10:42:26;;;;;;;4.07;2.35;;;;;;;20.05;41.99;102095.63;5034962;28;20088;-63
2022/11/27 10:45:04;;;;;;;8.75;2.72;;;;;;;20.15;41.92;102086.66;5003605;28;20095;-68
2022/11/27 10:47:30;;;;;;;4.45;2.67;;;;;;;20.04;42.26;102078.09;5031535;28;20487;-62
2022/11/27 10:49:56;;;;;;;5.22;2.60;;;;;;;20.03;42.33;102071.16;5028008;28;20033;-62
2022/11/27 10:52:22;;;;;;;3.92;2.42;;;;;;;20.01;42.32;102076.59;5032719;28;20048;-61
2022/11/27 10:55:01;;;;;;;5.22;2.67;;;;;;;20.01;42.14;102066.00;5032337;28;20036;-61
2022/11/27 10:57:41;;;;;;;5.45;2.50;;;;;;;20.00;42.26;102067.00;5034835;28;20182;-61
2022/11/27 11:00:06;;;;;;;5.50;3.00;;;;;;;20.04;42.14;102056.94;5030786;28;20116;-61
2022/11/27 11:02:36;;;;;;;5.50;2.50;;;;;;;20.02;41.96;102045.69;4992117;28;20052;-64
2022/11/27 11:05:17;;;;;;;4.97;3.17;;;;;;;20.04;42.22;102041.06;5035079;28;20040;-68
2022/11/27 11:07:54;;;;;;;4.93;2.70;;;;;;;20.16;41.63;102029.28;5033445;28;20127;-70
2022/11/27 11:10:31;;;;;;;4.20;2.40;;;;;;;20.38;41.62;102035.91;5034000;28;20032;-70
2022/11/27 11:13:22;;;;;;;8.93;2.92;;;;;;;20.42;41.79;102034.63;5033859;28;20037;-69
2022/11/27 11:16:03;;;;;;;7.30;3.15;;;;;;;20.26;42.16;102019.44;5033161;28;20037;-63
2022/11/27 11:18:32;;;;;;;4.88;2.75;;;;;;;20.26;42.11;102019.44;5020415;28;20123;-67
2022/11/27 11:21:00;;;;;;;6.47;2.53;;;;;;;20.20;42.21;102010.31;5030415;28;20997;-68
2022/11/27 11:23:39;;;;;;;5.60;2.80;;;;;;;20.22;42.17;102024.22;5033635;28;20036;-69
2022/11/27 11:26:22;;;;;;;5.45;2.92;;;;;;;20.20;41.99;102014.78;5018385;28;21025;-69
2022/11/27 11:28:51;;;;;;;5.50;2.60;;;;;;;20.20;42.23;102017.41;5026733;28;20068;-69
2022/11/27 11:31:22;;;;;;;5.00;2.60;;;;;;;20.19;41.82;102002.53;5033349;28;20025;-69
2022/11/27 11:34:01;;;;;;;4.68;2.60;;;;;;;20.39;41.95;102000.53;5007082;28;20878;-69